Matsu Arrow — 3FQB8 — position and weather

sailwx.info

Track history (hours):
 
Tides and Currents Weather Stations Pressure Air Temp Water Temp Dewpoint Dewpoint Depression Visibility Wind Speed Wind Dir Waves Ship Positions

Matsu Arrow

Last reported at 2017-Oct-19 04:33 UTC. Time now 2017-Oct-19 05:47 UTC.
Position N 48°07' W 006°30'.

Length 190 m; draft 7.2 m.

Type: Cargo ship. MMSI: 351805000.

Date/timePositionNaut miles runAvg speedWind from/ knotsBaromVisibWave heightAir tempDewpointWater temp
2017-Oct-19 04:33N 48°07' W 006°30'1010.5
2017-Oct-19 03:33N 48°15' W 006°22'5110.2
2017-Oct-18 22:33N 48°57' W 005°37'1312.7
2017-Oct-18 21:33N 49°04' W 005°21'4811.7
2017-Oct-18 17:26N 49°28' W 004°17'1410.3
2017-Oct-18 16:06N 49°36' W 003°59'110.2
2017-Oct-18 15:59N 49°36' W 003°57'1310.8
2017-Oct-18 14:49N 49°43' W 003°40'1011.8
2017-Oct-18 14:00N 49°47' W 003°28'612.6
2017-Oct-18 13:30N 49°51' W 003°19'713.3
2017-Oct-18 13:00N 49°54' W 003°10'713.9
2017-Oct-18 12:30N 49°58' W 003°01'714.0
2017-Oct-18 12:00N 50°01' W 002°51'714.1
2017-Oct-18 11:30N 50°03' W 002°41'5610.7
2017-Oct-18 06:14N 50°17' W 001°16'2 9.1
2017-Oct-18 05:59N 50°18' W 001°13'5 9.6
2017-Oct-18 05:30N 50°19' W 001°05'610.6
2017-Oct-18 04:58N 50°20' W 000°57'611.8
2017-Oct-18 04:28N 50°22' W 000°48'612.5
2017-Oct-18 04:00N 50°24' W 000°39'713.1
2017-Oct-18 03:30N 50°25' W 000°29'713.5
2017-Oct-18 03:00N 50°27' W 000°19'713.6
2017-Oct-18 02:30N 50°29' W 000°09'713.6
2017-Oct-18 02:00N 50°31' E 000°02'713.6
2017-Oct-18 01:30N 50°32' E 000°12'713.5
2017-Oct-18 01:00N 50°34' E 000°22'613.0
2017-Oct-18 00:30N 50°36' E 000°32'612.4
2017-Oct-18 00:00N 50°38' E 000°41'612.1
2017-Oct-17 23:30N 50°42' E 000°49'611.2
2017-Oct-17 23:00N 50°46' E 000°55'510.6
2017-Oct-17 22:30N 50°50' E 001°00'610.4
2017-Oct-17 21:56N 50°54' E 001°07'510.4
2017-Oct-17 21:29N 50°57' E 001°13'510.1
2017-Oct-17 21:00N 51°00' E 001°19'510.6
2017-Oct-17 20:30N 51°04' E 001°25'611.9
2017-Oct-17 20:00N 51°07' E 001°33'613.0
2017-Oct-17 19:30N 51°11' E 001°41'713.6
2017-Oct-17 19:00N 51°16' E 001°49'714.1
2017-Oct-17 18:30N 51°22' E 001°54'611.1
2017-Oct-17 18:00N 51°25' E 002°02'612.4
2017-Oct-17 17:30N 51°22' E 002°11'612.1
2017-Oct-17 17:00N 51°21' E 002°20'713.1
2017-Oct-17 16:28N 51°23' E 002°31'612.7
2017-Oct-17 16:00N 51°23' E 002°40'4 9.1
2017-Oct-17 15:31N 51°22' E 002°47'612.2
2017-Oct-17 15:01N 51°23' E 002°57'611.5
2017-Oct-17 14:30N 51°24' E 003°06'612.2
2017-Oct-17 14:01N 51°25' E 003°16'612.3
2017-Oct-17 13:30N 51°25' E 003°26'611.0
2017-Oct-17 13:00N 51°26' E 003°35'5 9.5
2017-Oct-17 12:30N 51°25' E 003°42'511.0
2017-Oct-17 12:00N 51°21' E 003°48'5 9.6
2017-Oct-17 11:31N 51°22' E 003°55'4 8.7
2017-Oct-17 11:00N 51°26' E 003°59'4 7.2
2017-Oct-17 10:30N 51°23' E 004°02'4 8.7
2017-Oct-17 10:01N 51°23' E 004°09'3 6.5
2017-Oct-17 09:31N 51°21' E 004°14'2 4.4
2017-Oct-17 09:00N 51°21' E 004°17'0 0.0
2017-Oct-17 08:30N 51°21' E 004°17'0 0.0
2017-Oct-17 08:00N 51°21' E 004°17'0 0.8
2017-Oct-17 07:31N 51°21' E 004°18'2 3.3
2017-Oct-17 07:00N 51°19' E 004°19'3 5.1
2017-Oct-17 06:31N 51°17' E 004°21'1 1.2
2017-Oct-17 06:00N 51°16' E 004°21'0 0.0
2017-Oct-17 05:30N 51°16' E 004°21'0 0.0
2017-Oct-17 05:00N 51°16' E 004°21'0 0.0
2017-Oct-17 04:30N 51°16' E 004°21'0 0.0
2017-Oct-17 04:00N 51°16' E 004°21'0 0.0
2017-Oct-17 03:30N 51°16' E 004°21'0 0.0
2017-Oct-17 03:00N 51°16' E 004°21'0 0.0
2017-Oct-17 02:30N 51°16' E 004°21'0 0.0
2017-Oct-17 02:00N 51°16' E 004°21'0 0.0
2017-Oct-17 01:30N 51°16' E 004°21'0 0.0
2017-Oct-17 00:57N 51°16' E 004°21'0 0.0
2017-Oct-17 00:30N 51°16' E 004°21'0 0.0
2017-Oct-16 23:57N 51°16' E 004°21'0 0.0
2017-Oct-16 23:30N 51°16' E 004°21'0 0.0
2017-Oct-16 23:00N 51°16' E 004°21'0 0.0
2017-Oct-16 22:30N 51°16' E 004°21'0 0.0
2017-Oct-16 22:00N 51°16' E 004°21'0 0.0
2017-Oct-16 21:27N 51°16' E 004°21'0 0.0
2017-Oct-16 21:00N 51°16' E 004°21'0 0.0
2017-Oct-16 20:30N 51°16' E 004°21'0 0.0
2017-Oct-16 20:00N 51°16' E 004°21'0 0.0
2017-Oct-16 19:30N 51°16' E 004°21'0 0.0
2017-Oct-16 19:00N 51°16' E 004°21'0 0.0
2017-Oct-16 18:30N 51°16' E 004°21'0 0.0
2017-Oct-16 18:00N 51°16' E 004°21'0 0.0
2017-Oct-16 17:30N 51°16' E 004°21'0 0.0
2017-Oct-16 17:00N 51°16' E 004°21'0 0.0
2017-Oct-16 16:30N 51°16' E 004°21'0 0.0
2017-Oct-16 16:00N 51°16' E 004°21'0 0.0
2017-Oct-16 15:30N 51°16' E 004°21'0 0.0
2017-Oct-16 15:00N 51°16' E 004°21'0 0.0
2017-Oct-16 14:30N 51°16' E 004°21'0 0.0
2017-Oct-16 13:30N 51°16' E 004°21'0 0.0
2017-Oct-16 13:00N 51°16' E 004°21'0 0.0
2017-Oct-16 12:30N 51°16' E 004°21'0 0.0
2017-Oct-16 12:00N 51°16' E 004°21'0 0.0
2017-Oct-16 11:30N 51°16' E 004°21'0 0.0
2017-Oct-16 11:00N 51°16' E 004°21'0 0.0
2017-Oct-16 10:30N 51°16' E 004°21'0 0.0
2017-Oct-16 10:00N 51°16' E 004°21'0 0.0
2017-Oct-16 09:30N 51°16' E 004°21'0 0.0
2017-Oct-16 09:00N 51°16' E 004°21'0 0.0
2017-Oct-16 08:30N 51°16' E 004°21'0 0.0
2017-Oct-16 08:00N 51°16' E 004°21'0 0.0
2017-Oct-16 07:30N 51°16' E 004°21'0 0.0
2017-Oct-16 07:00N 51°16' E 004°21'0 0.0
2017-Oct-16 06:30N 51°16' E 004°21'0 0.0
2017-Oct-16 06:00N 51°16' E 004°21'0 0.0
2017-Oct-16 05:30N 51°16' E 004°21'0 0.0
2017-Oct-16 05:00N 51°16' E 004°21'0 0.0
2017-Oct-16 04:30N 51°16' E 004°21'0 0.0
2017-Oct-16 04:00N 51°16' E 004°21'0 0.0
2017-Oct-16 03:30N 51°16' E 004°21'0 0.0
2017-Oct-16 03:00N 51°16' E 004°21'0 0.0
2017-Oct-16 02:30N 51°16' E 004°21'0 0.0
2017-Oct-16 02:00N 51°16' E 004°21'0 0.0
2017-Oct-16 01:30N 51°16' E 004°21'0 0.0
2017-Oct-16 01:00N 51°16' E 004°21'0 0.0
2017-Oct-16 00:30N 51°16' E 004°21'0 0.0
2017-Oct-16 00:00N 51°16' E 004°21'0 0.0
2017-Oct-15 23:30N 51°16' E 004°21'0 0.0
2017-Oct-15 23:00N 51°16' E 004°21'0 0.0
2017-Oct-15 22:30N 51°16' E 004°21'0 0.0
2017-Oct-15 22:00N 51°16' E 004°21'0 0.0
2017-Oct-15 21:30N 51°16' E 004°21'0 0.0
2017-Oct-15 21:00N 51°16' E 004°21'0 0.0
2017-Oct-15 20:30N 51°16' E 004°21'0 0.0
2017-Oct-15 20:00N 51°16' E 004°21'0 0.0
2017-Oct-15 19:30N 51°16' E 004°21'0 0.0
2017-Oct-15 19:00N 51°16' E 004°21'0 0.0
2017-Oct-15 18:30N 51°16' E 004°21'0 0.0
2017-Oct-15 18:00N 51°16' E 004°21'0 0.0
2017-Oct-15 17:30N 51°16' E 004°21'0 0.0
2017-Oct-15 17:00N 51°16' E 004°21'0 0.0
2017-Oct-15 16:30N 51°16' E 004°21'0 0.0
2017-Oct-15 16:00N 51°16' E 004°21'0 0.0
2017-Oct-15 15:30N 51°16' E 004°21'0 0.0
2017-Oct-15 15:00N 51°16' E 004°21'0 0.0
2017-Oct-15 14:00N 51°16' E 004°21'0 0.0
2017-Oct-15 13:30N 51°16' E 004°21'0 0.0
2017-Oct-15 13:00N 51°16' E 004°21'0 0.0
2017-Oct-15 12:30N 51°16' E 004°21'0 0.0
2017-Oct-15 12:00N 51°16' E 004°21'0 0.0
2017-Oct-15 11:30N 51°16' E 004°21'0 0.0
2017-Oct-15 11:00N 51°16' E 004°21'0 0.0
2017-Oct-15 10:30N 51°16' E 004°21'0 0.0
2017-Oct-15 10:00N 51°16' E 004°21'0 0.0
2017-Oct-15 09:30N 51°16' E 004°21'0 0.0
2017-Oct-15 09:00N 51°16' E 004°21'0 0.0
2017-Oct-15 08:30N 51°16' E 004°21'0 0.0
2017-Oct-15 08:00N 51°16' E 004°21'0 0.0
2017-Oct-15 07:30N 51°16' E 004°21'0 0.0
2017-Oct-15 07:00N 51°16' E 004°21'0 0.0
2017-Oct-15 06:30N 51°16' E 004°21'0 0.0
2017-Oct-15 06:00N 51°16' E 004°21'0 0.0
2017-Oct-15 05:30N 51°16' E 004°21'0 0.0
2017-Oct-15 05:00N 51°16' E 004°21'0 0.0
2017-Oct-15 04:30N 51°16' E 004°21'0 0.0
2017-Oct-15 04:00N 51°16' E 004°21'0 0.0
2017-Oct-15 03:30N 51°16' E 004°21'0 0.0
2017-Oct-15 03:00N 51°16' E 004°21'0 0.0
2017-Oct-15 02:30N 51°16' E 004°21'0 0.0
2017-Oct-15 02:00N 51°16' E 004°21'0 0.0
2017-Oct-15 01:30N 51°16' E 004°21'0 0.0
2017-Oct-15 01:00N 51°16' E 004°21'0 0.0
2017-Oct-15 00:30N 51°16' E 004°21'0 0.0
2017-Oct-15 00:00N 51°16' E 004°21'0 0.0
2017-Oct-14 23:30N 51°16' E 004°21'0 0.0
2017-Oct-14 23:00N 51°16' E 004°21'0 0.0
2017-Oct-14 22:30N 51°16' E 004°21'0 0.0
2017-Oct-14 22:00N 51°16' E 004°21'0 0.0
2017-Oct-14 21:30N 51°16' E 004°21'0 0.0
2017-Oct-14 21:00N 51°16' E 004°21'0 0.0
2017-Oct-14 20:30N 51°16' E 004°21'0 0.0
2017-Oct-14 20:00N 51°16' E 004°21'0 0.0
2017-Oct-14 19:30N 51°16' E 004°21'0 0.0
2017-Oct-14 19:00N 51°16' E 004°21'0 0.0
2017-Oct-14 18:30N 51°16' E 004°21'0 0.0
2017-Oct-14 18:00N 51°16' E 004°21'0 0.0
2017-Oct-14 17:30N 51°16' E 004°21'0 0.0
2017-Oct-14 17:00N 51°16' E 004°21'0 0.0
2017-Oct-14 16:30N 51°16' E 004°21'0 0.0
2017-Oct-14 15:57N 51°16' E 004°21'0 0.0
2017-Oct-14 15:30N 51°16' E 004°21'0 0.0
2017-Oct-14 15:00N 51°16' E 004°21'0 0.0
2017-Oct-14 14:30N 51°16' E 004°21'0 0.0
2017-Oct-14 14:00N 51°16' E 004°21'0 0.0
2017-Oct-14 13:30N 51°16' E 004°21'0 0.0
2017-Oct-14 13:00N 51°16' E 004°21'0 0.0
2017-Oct-14 12:30N 51°16' E 004°21'0 0.0
2017-Oct-14 12:00N 51°16' E 004°21'0 0.0
2017-Oct-14 11:30N 51°16' E 004°21'0 0.0
2017-Oct-14 11:00N 51°16' E 004°21'0 0.0
2017-Oct-14 10:30N 51°16' E 004°21'0 0.0
2017-Oct-14 10:00N 51°16' E 004°21'0 0.0
2017-Oct-14 09:30N 51°16' E 004°21'0 0.0
2017-Oct-14 09:00N 51°16' E 004°21'0 0.0
2017-Oct-14 08:30N 51°16' E 004°21'0 0.0
2017-Oct-14 08:00N 51°16' E 004°21'0 0.0
2017-Oct-14 07:30N 51°16' E 004°21'0 0.0
2017-Oct-14 07:00N 51°16' E 004°21'0 0.0
2017-Oct-14 06:30N 51°16' E 004°21'0 0.0
2017-Oct-14 06:00N 51°16' E 004°21'0 0.0
2017-Oct-14 05:30N 51°16' E 004°21'0 0.0
2017-Oct-14 05:00N 51°16' E 004°21'0 0.0
2017-Oct-14 04:30N 51°16' E 004°21'0 0.0
2017-Oct-14 04:00N 51°16' E 004°21'0 0.0
2017-Oct-14 03:30N 51°16' E 004°21'0 0.0
2017-Oct-14 03:00N 51°16' E 004°21'0 0.0
2017-Oct-14 02:30N 51°16' E 004°21'0 0.0
2017-Oct-14 02:00N 51°16' E 004°21'0 0.0
2017-Oct-14 01:30N 51°16' E 004°21'0 0.0
2017-Oct-14 01:00N 51°16' E 004°21'0 0.0
2017-Oct-14 00:30N 51°16' E 004°21'0 0.0
2017-Oct-14 00:00N 51°16' E 004°21'0 0.0
2017-Oct-13 23:30N 51°16' E 004°21'0 0.0
2017-Oct-13 23:00N 51°16' E 004°21'0 0.0
2017-Oct-13 22:30N 51°16' E 004°21'0 0.0
2017-Oct-13 22:00N 51°16' E 004°21'0 0.0
2017-Oct-13 21:30N 51°16' E 004°21'0 0.0
2017-Oct-13 21:00N 51°16' E 004°21'0 0.0
2017-Oct-13 20:30N 51°16' E 004°21'0 0.0
2017-Oct-13 20:00N 51°16' E 004°21'0 0.0
2017-Oct-13 19:30N 51°16' E 004°21'0 0.0
2017-Oct-13 19:00N 51°16' E 004°21'0 0.0
2017-Oct-13 18:30N 51°16' E 004°21'0 0.0
2017-Oct-13 18:00N 51°16' E 004°21'0 0.0
2017-Oct-13 17:30N 51°16' E 004°21'0 0.0
2017-Oct-13 17:00N 51°16' E 004°21'0 0.0
2017-Oct-13 16:30N 51°16' E 004°21'0 0.0
2017-Oct-13 16:00N 51°16' E 004°21'0 0.0
2017-Oct-13 15:30N 51°16' E 004°21'0 0.0
2017-Oct-13 14:57N 51°16' E 004°21'0 0.0
2017-Oct-13 14:30N 51°16' E 004°21'0 0.0
2017-Oct-13 13:57N 51°16' E 004°21'0 0.0
2017-Oct-13 13:31N 51°16' E 004°21'1 2.3
2017-Oct-13 13:00N 51°17' E 004°20'3 6.4
2017-Oct-13 12:31N 51°20' E 004°18'1 1.7
2017-Oct-13 12:00N 51°21' E 004°17'0 0.0
2017-Oct-13 11:30N 51°21' E 004°17'0 0.0
2017-Oct-13 11:00N 51°21' E 004°17'3 5.4
2017-Oct-13 10:30N 51°22' E 004°13'3 6.5
2017-Oct-13 10:00N 51°22' E 004°08'4 8.4
2017-Oct-13 09:30N 51°24' E 004°02'3 5.4
2017-Oct-13 09:00N 51°24' E 003°58'510.4
2017-Oct-13 08:30N 51°21' E 003°51'510.9
2017-Oct-13 08:00N 51°23' E 003°43'510.5
2017-Oct-13 07:30N 51°25' E 003°36'510.0
2017-Oct-13 07:00N 51°29' E 003°30'5 9.8
2017-Oct-13 06:30N 51°33' E 003°25'611.3
2017-Oct-13 06:00N 51°38' E 003°21'611.0
2017-Oct-13 05:29N 51°43' E 003°17'3 5.3
2017-Oct-13 04:58N 51°45' E 003°15'4 7.0
2017-Oct-13 04:26N 51°49' E 003°18'3 5.7
2017-Oct-13 03:58N 51°50' E 003°22'0 0.1
2017-Oct-13 03:30N 51°50' E 003°22'0 0.0
2017-Oct-13 03:00N 51°50' E 003°22'0 0.0
2017-Oct-13 02:30N 51°50' E 003°22'0 0.0
2017-Oct-13 01:58N 51°50' E 003°22'0 0.0
2017-Oct-13 01:30N 51°50' E 003°22'0 0.0
2017-Oct-13 01:00N 51°50' E 003°22'0 0.3
2017-Oct-13 00:28N 51°50' E 003°21'2 3.4
2017-Oct-12 23:57N 51°51' E 003°19'10 8.1
2017-Oct-12 22:43N 52°01' E 003°20'210.1
2017-Oct-12 22:30N 52°03' E 003°21'5 9.9
2017-Oct-12 21:59N 52°04' E 003°29'511.0
2017-Oct-12 21:30N 52°03' E 003°38'510.9
2017-Oct-12 21:00N 52°03' E 003°47'510.2
2017-Oct-12 20:30N 52°03' E 003°55'3 6.8
2017-Oct-12 20:00N 52°01' E 003°60'510.6
2017-Oct-12 19:30N 51°59' E 004°07'5 9.6
2017-Oct-12 19:00N 51°56' E 004°14'3 5.7
2017-Oct-12 18:28N 51°54' E 004°17'0 0.0
2017-Oct-12 17:58N 51°54' E 004°17'0 0.0
2017-Oct-12 17:25N 51°54' E 004°17'0 0.0
2017-Oct-12 16:58N 51°54' E 004°17'0 0.0
2017-Oct-12 16:28N 51°54' E 004°17'0 0.0
2017-Oct-12 15:58N 51°54' E 004°17'0 0.0
2017-Oct-12 15:28N 51°54' E 004°17'0 0.0
2017-Oct-12 14:58N 51°54' E 004°17'0 0.0
2017-Oct-12 14:28N 51°54' E 004°17'0 0.0
2017-Oct-12 13:58N 51°54' E 004°17'0 0.0
2017-Oct-12 13:28N 51°54' E 004°17'0 0.0
2017-Oct-12 12:58N 51°54' E 004°17'0 0.0
2017-Oct-12 12:28N 51°54' E 004°17'0 0.0
2017-Oct-12 11:58N 51°54' E 004°17'0 0.0
2017-Oct-12 11:28N 51°54' E 004°17'0 0.0
2017-Oct-12 10:58N 51°54' E 004°17'0 0.0
2017-Oct-12 10:28N 51°54' E 004°17'0 0.0
2017-Oct-12 09:58N 51°54' E 004°17'0 0.0
2017-Oct-12 09:28N 51°54' E 004°17'0 0.0
2017-Oct-12 08:58N 51°54' E 004°17'0 0.0
2017-Oct-12 08:28N 51°54' E 004°17'0 0.0
2017-Oct-12 07:58N 51°54' E 004°17'0 0.0
2017-Oct-12 07:28N 51°54' E 004°17'0 0.0
2017-Oct-12 06:58N 51°54' E 004°17'0 0.0
2017-Oct-12 06:28N 51°54' E 004°17'0 0.0
2017-Oct-12 05:58N 51°54' E 004°17'0 0.0
2017-Oct-12 05:28N 51°54' E 004°17'0 0.0
2017-Oct-12 04:58N 51°54' E 004°17'0 0.0
2017-Oct-12 04:28N 51°54' E 004°17'0 0.0
2017-Oct-12 03:58N 51°54' E 004°17'0 0.0
2017-Oct-12 03:28N 51°54' E 004°17'0 0.0
2017-Oct-12 02:58N 51°54' E 004°17'0 0.0
2017-Oct-12 02:28N 51°54' E 004°17'0 0.0
2017-Oct-12 01:58N 51°54' E 004°17'0 0.0
2017-Oct-12 01:28N 51°54' E 004°17'0 0.0
2017-Oct-12 00:58N 51°54' E 004°17'0 0.0
2017-Oct-12 00:28N 51°54' E 004°17'0 0.0
2017-Oct-11 23:58N 51°54' E 004°17'0 0.0
2017-Oct-11 23:28N 51°54' E 004°17'0 0.0
2017-Oct-11 22:58N 51°54' E 004°17'0 0.0
2017-Oct-11 22:28N 51°54' E 004°17'0 0.0
2017-Oct-11 21:58N 51°54' E 004°17'0 0.0
2017-Oct-11 21:28N 51°54' E 004°17'0 0.0
2017-Oct-11 20:58N 51°54' E 004°17'0 0.0
2017-Oct-11 20:28N 51°54' E 004°17'0 0.0
2017-Oct-11 19:58N 51°54' E 004°17'0 0.0
2017-Oct-11 19:28N 51°54' E 004°17'0 0.0
2017-Oct-11 18:58N 51°54' E 004°17'0 0.0
2017-Oct-11 18:28N 51°54' E 004°17'0 0.0
2017-Oct-11 17:58N 51°54' E 004°17'0 0.0
2017-Oct-11 17:28N 51°54' E 004°17'0 0.0
2017-Oct-11 16:58N 51°54' E 004°17'0 0.0
2017-Oct-10 23:58N 51°54' E 004°17'0 0.0
2017-Oct-10 23:28N 51°54' E 004°17'0 0.0
2017-Oct-10 22:58N 51°54' E 004°17'0 0.0
2017-Oct-10 22:28N 51°54' E 004°17'0 0.0
2017-Oct-10 21:58N 51°54' E 004°17'0 0.0
2017-Oct-10 21:28N 51°54' E 004°17'0 0.0
2017-Oct-10 20:58N 51°54' E 004°17'0 0.0
2017-Oct-10 20:28N 51°54' E 004°17'0 0.0
2017-Oct-10 19:58N 51°54' E 004°17'0 0.0
2017-Oct-10 19:28N 51°54' E 004°17'0 0.0
2017-Oct-10 18:58N 51°54' E 004°17'0 0.0
2017-Oct-10 18:28N 51°54' E 004°17'0 0.0
2017-Oct-10 17:58N 51°54' E 004°17'0 0.0
2017-Oct-10 17:28N 51°54' E 004°17'0 0.0
2017-Oct-10 16:58N 51°54' E 004°17'0 0.0
2017-Oct-10 16:28N 51°54' E 004°17'0 0.0
2017-Oct-10 15:58N 51°54' E 004°17'0 0.0
2017-Oct-10 15:28N 51°54' E 004°17'0 0.0
2017-Oct-10 14:58N 51°54' E 004°17'0 0.0
2017-Oct-10 13:58N 51°54' E 004°17'0 0.0
2017-Oct-10 13:28N 51°54' E 004°17'0 0.0
2017-Oct-10 12:58N 51°54' E 004°17'0 0.0
2017-Oct-10 12:28N 51°54' E 004°17'0 0.0
2017-Oct-10 11:58N 51°54' E 004°17'0 0.0
2017-Oct-10 11:28N 51°54' E 004°17'0 0.0
2017-Oct-10 10:58N 51°54' E 004°17'0 0.0
2017-Oct-10 10:25N 51°54' E 004°17'0 0.0
2017-Oct-10 09:58N 51°54' E 004°17'0 0.0
2017-Oct-10 09:28N 51°54' E 004°17'0 0.0
2017-Oct-10 08:58N 51°54' E 004°17'0 0.0
2017-Oct-10 08:28N 51°54' E 004°17'0 0.0
2017-Oct-10 07:58N 51°54' E 004°17'0 0.0
2017-Oct-10 07:28N 51°54' E 004°17'0 0.0
2017-Oct-10 06:58N 51°54' E 004°17'0 0.0
2017-Oct-10 06:28N 51°54' E 004°17'0 0.0
2017-Oct-10 05:58N 51°54' E 004°17'0 0.0
2017-Oct-10 05:28N 51°54' E 004°17'0 0.0
2017-Oct-10 04:58N 51°54' E 004°17'0 0.0
2017-Oct-10 04:28N 51°54' E 004°17'0 0.0
2017-Oct-10 03:58N 51°54' E 004°17'0 0.0
2017-Oct-10 03:28N 51°54' E 004°17'0 0.0
2017-Oct-10 02:58N 51°54' E 004°17'0 0.0
2017-Oct-10 02:28N 51°54' E 004°17'0 0.0
2017-Oct-10 01:58N 51°54' E 004°17'0 0.0
2017-Oct-10 01:28N 51°54' E 004°17'0 0.0
2017-Oct-10 00:58N 51°54' E 004°17'0 0.0
2017-Oct-10 00:28N 51°54' E 004°17'0 0.0
2017-Oct-09 23:58N 51°54' E 004°17'0 0.0
2017-Oct-09 23:28N 51°54' E 004°17'0 0.0
2017-Oct-09 22:55N 51°54' E 004°17'0 0.0
2017-Oct-09 22:28N 51°54' E 004°17'0 0.0
2017-Oct-09 21:58N 51°54' E 004°17'0 0.0
2017-Oct-09 21:28N 51°54' E 004°17'0 0.0
2017-Oct-09 20:58N 51°54' E 004°17'0 0.0
2017-Oct-09 20:28N 51°54' E 004°17'0 0.0
2017-Oct-09 19:58N 51°54' E 004°17'0 0.0
2017-Oct-09 19:28N 51°54' E 004°17'0 0.0
2017-Oct-09 18:58N 51°54' E 004°17'0 0.0
2017-Oct-09 18:28N 51°54' E 004°17'0 0.0
2017-Oct-09 17:58N 51°54' E 004°17'0 0.0
2017-Oct-09 17:28N 51°54' E 004°17'0 0.0
2017-Oct-09 16:58N 51°54' E 004°17'0 0.0
2017-Oct-09 16:28N 51°54' E 004°17'0 0.0
2017-Oct-09 15:58N 51°54' E 004°17'0 0.0
2017-Oct-09 15:28N 51°54' E 004°17'0 0.0
2017-Oct-09 14:58N 51°54' E 004°17'0 0.0
2017-Oct-09 14:28N 51°54' E 004°17'0 0.0
2017-Oct-09 13:58N 51°54' E 004°17'0 0.0
2017-Oct-09 13:28N 51°54' E 004°17'0 0.0
2017-Oct-09 12:58N 51°54' E 004°17'0 0.0
2017-Oct-09 12:28N 51°54' E 004°17'0 0.0
2017-Oct-09 11:58N 51°54' E 004°17'0 0.0
2017-Oct-09 11:28N 51°54' E 004°17'0 0.0
2017-Oct-09 10:58N 51°54' E 004°17'0 0.0
2017-Oct-09 10:28N 51°54' E 004°17'0 0.0
2017-Oct-09 09:58N 51°54' E 004°17'0 0.0
2017-Oct-09 09:28N 51°54' E 004°17'0 0.0
2017-Oct-09 08:58N 51°54' E 004°17'0 0.0
2017-Oct-09 08:28N 51°54' E 004°17'0 0.0
2017-Oct-09 07:58N 51°54' E 004°17'0 0.0
2017-Oct-09 07:28N 51°54' E 004°17'0 0.0
2017-Oct-09 06:58N 51°54' E 004°17'0 0.0
2017-Oct-09 06:28N 51°54' E 004°17'0 0.0
2017-Oct-09 05:58N 51°54' E 004°17'0 0.0
2017-Oct-09 05:28N 51°54' E 004°17'0 0.0
2017-Oct-09 04:58N 51°54' E 004°17'  
Track history (hours):
 
Tides and Currents Weather Stations Pressure Air Temp Water Temp Dewpoint Dewpoint Depression Visibility Wind Speed Wind Dir Waves Ship Positions

Matsu Arrow

Last reported at 2017-Oct-19 04:33 UTC. Time now 2017-Oct-19 05:47 UTC.
Position N 48°07' W 006°30'.

Length 190 m; draft 7.2 m.

Type: Cargo ship. MMSI: 351805000.

Date/timePositionNaut miles runAvg speedWind from/ knotsBaromVisibWave heightAir tempDewpointWater temp
2017-Oct-19 04:33N 48°07' W 006°30'1010.5
2017-Oct-19 03:33N 48°15' W 006°22'5110.2
2017-Oct-18 22:33N 48°57' W 005°37'1312.7
2017-Oct-18 21:33N 49°04' W 005°21'4811.7
2017-Oct-18 17:26N 49°28' W 004°17'1410.3
2017-Oct-18 16:06N 49°36' W 003°59'110.2
2017-Oct-18 15:59N 49°36' W 003°57'1310.8
2017-Oct-18 14:49N 49°43' W 003°40'1011.8
2017-Oct-18 14:00N 49°47' W 003°28'612.6
2017-Oct-18 13:30N 49°51' W 003°19'713.3
2017-Oct-18 13:00N 49°54' W 003°10'713.9
2017-Oct-18 12:30N 49°58' W 003°01'714.0
2017-Oct-18 12:00N 50°01' W 002°51'714.1
2017-Oct-18 11:30N 50°03' W 002°41'5610.7
2017-Oct-18 06:14N 50°17' W 001°16'2 9.1
2017-Oct-18 05:59N 50°18' W 001°13'5 9.6
2017-Oct-18 05:30N 50°19' W 001°05'610.6
2017-Oct-18 04:58N 50°20' W 000°57'611.8
2017-Oct-18 04:28N 50°22' W 000°48'612.5
2017-Oct-18 04:00N 50°24' W 000°39'713.1
2017-Oct-18 03:30N 50°25' W 000°29'713.5
2017-Oct-18 03:00N 50°27' W 000°19'713.6
2017-Oct-18 02:30N 50°29' W 000°09'713.6
2017-Oct-18 02:00N 50°31' E 000°02'713.6
2017-Oct-18 01:30N 50°32' E 000°12'713.5
2017-Oct-18 01:00N 50°34' E 000°22'613.0
2017-Oct-18 00:30N 50°36' E 000°32'612.4
2017-Oct-18 00:00N 50°38' E 000°41'612.1
2017-Oct-17 23:30N 50°42' E 000°49'611.2
2017-Oct-17 23:00N 50°46' E 000°55'510.6
2017-Oct-17 22:30N 50°50' E 001°00'610.4
2017-Oct-17 21:56N 50°54' E 001°07'510.4
2017-Oct-17 21:29N 50°57' E 001°13'510.1
2017-Oct-17 21:00N 51°00' E 001°19'510.6
2017-Oct-17 20:30N 51°04' E 001°25'611.9
2017-Oct-17 20:00N 51°07' E 001°33'613.0
2017-Oct-17 19:30N 51°11' E 001°41'713.6
2017-Oct-17 19:00N 51°16' E 001°49'714.1
2017-Oct-17 18:30N 51°22' E 001°54'611.1
2017-Oct-17 18:00N 51°25' E 002°02'612.4
2017-Oct-17 17:30N 51°22' E 002°11'612.1
2017-Oct-17 17:00N 51°21' E 002°20'713.1
2017-Oct-17 16:28N 51°23' E 002°31'612.7
2017-Oct-17 16:00N 51°23' E 002°40'4 9.1
2017-Oct-17 15:31N 51°22' E 002°47'612.2
2017-Oct-17 15:01N 51°23' E 002°57'611.5
2017-Oct-17 14:30N 51°24' E 003°06'612.2
2017-Oct-17 14:01N 51°25' E 003°16'612.3
2017-Oct-17 13:30N 51°25' E 003°26'611.0
2017-Oct-17 13:00N 51°26' E 003°35'5 9.5
2017-Oct-17 12:30N 51°25' E 003°42'511.0
2017-Oct-17 12:00N 51°21' E 003°48'5 9.6
2017-Oct-17 11:31N 51°22' E 003°55'4 8.7
2017-Oct-17 11:00N 51°26' E 003°59'4 7.2
2017-Oct-17 10:30N 51°23' E 004°02'4 8.7
2017-Oct-17 10:01N 51°23' E 004°09'3 6.5
2017-Oct-17 09:31N 51°21' E 004°14'2 4.4
2017-Oct-17 09:00N 51°21' E 004°17'0 0.0
2017-Oct-17 08:30N 51°21' E 004°17'0 0.0
2017-Oct-17 08:00N 51°21' E 004°17'0 0.8
2017-Oct-17 07:31N 51°21' E 004°18'2 3.3
2017-Oct-17 07:00N 51°19' E 004°19'3 5.1
2017-Oct-17 06:31N 51°17' E 004°21'1 1.2
2017-Oct-17 06:00N 51°16' E 004°21'0 0.0
2017-Oct-17 05:30N 51°16' E 004°21'0 0.0
2017-Oct-17 05:00N 51°16' E 004°21'0 0.0
2017-Oct-17 04:30N 51°16' E 004°21'0 0.0
2017-Oct-17 04:00N 51°16' E 004°21'0 0.0
2017-Oct-17 03:30N 51°16' E 004°21'0 0.0
2017-Oct-17 03:00N 51°16' E 004°21'0 0.0
2017-Oct-17 02:30N 51°16' E 004°21'0 0.0
2017-Oct-17 02:00N 51°16' E 004°21'0 0.0
2017-Oct-17 01:30N 51°16' E 004°21'0 0.0
2017-Oct-17 00:57N 51°16' E 004°21'0 0.0
2017-Oct-17 00:30N 51°16' E 004°21'0 0.0
2017-Oct-16 23:57N 51°16' E 004°21'0 0.0
2017-Oct-16 23:30N 51°16' E 004°21'0 0.0
2017-Oct-16 23:00N 51°16' E 004°21'0 0.0
2017-Oct-16 22:30N 51°16' E 004°21'0 0.0
2017-Oct-16 22:00N 51°16' E 004°21'0 0.0
2017-Oct-16 21:27N 51°16' E 004°21'0 0.0
2017-Oct-16 21:00N 51°16' E 004°21'0 0.0
2017-Oct-16 20:30N 51°16' E 004°21'0 0.0
2017-Oct-16 20:00N 51°16' E 004°21'0 0.0
2017-Oct-16 19:30N 51°16' E 004°21'0 0.0
2017-Oct-16 19:00N 51°16' E 004°21'0 0.0
2017-Oct-16 18:30N 51°16' E 004°21'0 0.0
2017-Oct-16 18:00N 51°16' E 004°21'0 0.0
2017-Oct-16 17:30N 51°16' E 004°21'0 0.0
2017-Oct-16 17:00N 51°16' E 004°21'0 0.0
2017-Oct-16 16:30N 51°16' E 004°21'0 0.0
2017-Oct-16 16:00N 51°16' E 004°21'0 0.0
2017-Oct-16 15:30N 51°16' E 004°21'0 0.0
2017-Oct-16 15:00N 51°16' E 004°21'0 0.0
2017-Oct-16 14:30N 51°16' E 004°21'0 0.0
2017-Oct-16 13:30N 51°16' E 004°21'0 0.0
2017-Oct-16 13:00N 51°16' E 004°21'0 0.0
2017-Oct-16 12:30N 51°16' E 004°21'0 0.0
2017-Oct-16 12:00N 51°16' E 004°21'0 0.0
2017-Oct-16 11:30N 51°16' E 004°21'0 0.0
2017-Oct-16 11:00N 51°16' E 004°21'0 0.0
2017-Oct-16 10:30N 51°16' E 004°21'0 0.0
2017-Oct-16 10:00N 51°16' E 004°21'0 0.0
2017-Oct-16 09:30N 51°16' E 004°21'0 0.0
2017-Oct-16 09:00N 51°16' E 004°21'0 0.0
2017-Oct-16 08:30N 51°16' E 004°21'0 0.0
2017-Oct-16 08:00N 51°16' E 004°21'0 0.0
2017-Oct-16 07:30N 51°16' E 004°21'0 0.0
2017-Oct-16 07:00N 51°16' E 004°21'0 0.0
2017-Oct-16 06:30N 51°16' E 004°21'0 0.0
2017-Oct-16 06:00N 51°16' E 004°21'0 0.0
2017-Oct-16 05:30N 51°16' E 004°21'0 0.0
2017-Oct-16 05:00N 51°16' E 004°21'0 0.0
2017-Oct-16 04:30N 51°16' E 004°21'0 0.0
2017-Oct-16 04:00N 51°16' E 004°21'0 0.0
2017-Oct-16 03:30N 51°16' E 004°21'0 0.0
2017-Oct-16 03:00N 51°16' E 004°21'0 0.0
2017-Oct-16 02:30N 51°16' E 004°21'0 0.0
2017-Oct-16 02:00N 51°16' E 004°21'0 0.0
2017-Oct-16 01:30N 51°16' E 004°21'0 0.0
2017-Oct-16 01:00N 51°16' E 004°21'0 0.0
2017-Oct-16 00:30N 51°16' E 004°21'0 0.0
2017-Oct-16 00:00N 51°16' E 004°21'0 0.0
2017-Oct-15 23:30N 51°16' E 004°21'0 0.0
2017-Oct-15 23:00N 51°16' E 004°21'0 0.0
2017-Oct-15 22:30N 51°16' E 004°21'0 0.0
2017-Oct-15 22:00N 51°16' E 004°21'0 0.0
2017-Oct-15 21:30N 51°16' E 004°21'0 0.0
2017-Oct-15 21:00N 51°16' E 004°21'0 0.0
2017-Oct-15 20:30N 51°16' E 004°21'0 0.0
2017-Oct-15 20:00N 51°16' E 004°21'0 0.0
2017-Oct-15 19:30N 51°16' E 004°21'0 0.0
2017-Oct-15 19:00N 51°16' E 004°21'0 0.0
2017-Oct-15 18:30N 51°16' E 004°21'0 0.0
2017-Oct-15 18:00N 51°16' E 004°21'0 0.0
2017-Oct-15 17:30N 51°16' E 004°21'0 0.0
2017-Oct-15 17:00N 51°16' E 004°21'0 0.0
2017-Oct-15 16:30N 51°16' E 004°21'0 0.0
2017-Oct-15 16:00N 51°16' E 004°21'0 0.0
2017-Oct-15 15:30N 51°16' E 004°21'0 0.0
2017-Oct-15 15:00N 51°16' E 004°21'0 0.0
2017-Oct-15 14:00N 51°16' E 004°21'0 0.0
2017-Oct-15 13:30N 51°16' E 004°21'0 0.0
2017-Oct-15 13:00N 51°16' E 004°21'0 0.0
2017-Oct-15 12:30N 51°16' E 004°21'0 0.0
2017-Oct-15 12:00N 51°16' E 004°21'0 0.0
2017-Oct-15 11:30N 51°16' E 004°21'0 0.0
2017-Oct-15 11:00N 51°16' E 004°21'0 0.0
2017-Oct-15 10:30N 51°16' E 004°21'0 0.0
2017-Oct-15 10:00N 51°16' E 004°21'0 0.0
2017-Oct-15 09:30N 51°16' E 004°21'0 0.0
2017-Oct-15 09:00N 51°16' E 004°21'0 0.0
2017-Oct-15 08:30N 51°16' E 004°21'0 0.0
2017-Oct-15 08:00N 51°16' E 004°21'0 0.0
2017-Oct-15 07:30N 51°16' E 004°21'0 0.0
2017-Oct-15 07:00N 51°16' E 004°21'0 0.0
2017-Oct-15 06:30N 51°16' E 004°21'0 0.0
2017-Oct-15 06:00N 51°16' E 004°21'0 0.0
2017-Oct-15 05:30N 51°16' E 004°21'0 0.0
2017-Oct-15 05:00N 51°16' E 004°21'0 0.0
2017-Oct-15 04:30N 51°16' E 004°21'0 0.0
2017-Oct-15 04:00N 51°16' E 004°21'0 0.0
2017-Oct-15 03:30N 51°16' E 004°21'0 0.0
2017-Oct-15 03:00N 51°16' E 004°21'0 0.0
2017-Oct-15 02:30N 51°16' E 004°21'0 0.0
2017-Oct-15 02:00N 51°16' E 004°21'0 0.0
2017-Oct-15 01:30N 51°16' E 004°21'0 0.0
2017-Oct-15 01:00N 51°16' E 004°21'0 0.0
2017-Oct-15 00:30N 51°16' E 004°21'0 0.0
2017-Oct-15 00:00N 51°16' E 004°21'0 0.0
2017-Oct-14 23:30N 51°16' E 004°21'0 0.0
2017-Oct-14 23:00N 51°16' E 004°21'0 0.0
2017-Oct-14 22:30N 51°16' E 004°21'0 0.0
2017-Oct-14 22:00N 51°16' E 004°21'0 0.0
2017-Oct-14 21:30N 51°16' E 004°21'0 0.0
2017-Oct-14 21:00N 51°16' E 004°21'0 0.0
2017-Oct-14 20:30N 51°16' E 004°21'0 0.0
2017-Oct-14 20:00N 51°16' E 004°21'0 0.0
2017-Oct-14 19:30N 51°16' E 004°21'0 0.0
2017-Oct-14 19:00N 51°16' E 004°21'0 0.0
2017-Oct-14 18:30N 51°16' E 004°21'0 0.0
2017-Oct-14 18:00N 51°16' E 004°21'0 0.0
2017-Oct-14 17:30N 51°16' E 004°21'0 0.0
2017-Oct-14 17:00N 51°16' E 004°21'0 0.0
2017-Oct-14 16:30N 51°16' E 004°21'0 0.0
2017-Oct-14 15:57N 51°16' E 004°21'0 0.0
2017-Oct-14 15:30N 51°16' E 004°21'0 0.0
2017-Oct-14 15:00N 51°16' E 004°21'0 0.0
2017-Oct-14 14:30N 51°16' E 004°21'0 0.0
2017-Oct-14 14:00N 51°16' E 004°21'0 0.0
2017-Oct-14 13:30N 51°16' E 004°21'0 0.0
2017-Oct-14 13:00N 51°16' E 004°21'0 0.0
2017-Oct-14 12:30N 51°16' E 004°21'0 0.0
2017-Oct-14 12:00N 51°16' E 004°21'0 0.0
2017-Oct-14 11:30N 51°16' E 004°21'0 0.0
2017-Oct-14 11:00N 51°16' E 004°21'0 0.0
2017-Oct-14 10:30N 51°16' E 004°21'0 0.0
2017-Oct-14 10:00N 51°16' E 004°21'0 0.0
2017-Oct-14 09:30N 51°16' E 004°21'0 0.0
2017-Oct-14 09:00N 51°16' E 004°21'0 0.0
2017-Oct-14 08:30N 51°16' E 004°21'0 0.0
2017-Oct-14 08:00N 51°16' E 004°21'0 0.0
2017-Oct-14 07:30N 51°16' E 004°21'0 0.0
2017-Oct-14 07:00N 51°16' E 004°21'0 0.0
2017-Oct-14 06:30N 51°16' E 004°21'0 0.0
2017-Oct-14 06:00N 51°16' E 004°21'0 0.0
2017-Oct-14 05:30N 51°16' E 004°21'0 0.0
2017-Oct-14 05:00N 51°16' E 004°21'0 0.0
2017-Oct-14 04:30N 51°16' E 004°21'0 0.0
2017-Oct-14 04:00N 51°16' E 004°21'0 0.0
2017-Oct-14 03:30N 51°16' E 004°21'0 0.0
2017-Oct-14 03:00N 51°16' E 004°21'0 0.0
2017-Oct-14 02:30N 51°16' E 004°21'0 0.0
2017-Oct-14 02:00N 51°16' E 004°21'0 0.0
2017-Oct-14 01:30N 51°16' E 004°21'0 0.0
2017-Oct-14 01:00N 51°16' E 004°21'0 0.0
2017-Oct-14 00:30N 51°16' E 004°21'0 0.0
2017-Oct-14 00:00N 51°16' E 004°21'0 0.0
2017-Oct-13 23:30N 51°16' E 004°21'0 0.0
2017-Oct-13 23:00N 51°16' E 004°21'0 0.0
2017-Oct-13 22:30N 51°16' E 004°21'0 0.0
2017-Oct-13 22:00N 51°16' E 004°21'0 0.0
2017-Oct-13 21:30N 51°16' E 004°21'0 0.0
2017-Oct-13 21:00N 51°16' E 004°21'0 0.0
2017-Oct-13 20:30N 51°16' E 004°21'0 0.0
2017-Oct-13 20:00N 51°16' E 004°21'0 0.0
2017-Oct-13 19:30N 51°16' E 004°21'0 0.0
2017-Oct-13 19:00N 51°16' E 004°21'0 0.0
2017-Oct-13 18:30N 51°16' E 004°21'0 0.0
2017-Oct-13 18:00N 51°16' E 004°21'0 0.0
2017-Oct-13 17:30N 51°16' E 004°21'0 0.0
2017-Oct-13 17:00N 51°16' E 004°21'0 0.0
2017-Oct-13 16:30N 51°16' E 004°21'0 0.0
2017-Oct-13 16:00N 51°16' E 004°21'0 0.0
2017-Oct-13 15:30N 51°16' E 004°21'0 0.0
2017-Oct-13 14:57N 51°16' E 004°21'0 0.0
2017-Oct-13 14:30N 51°16' E 004°21'0 0.0
2017-Oct-13 13:57N 51°16' E 004°21'0 0.0
2017-Oct-13 13:31N 51°16' E 004°21'1 2.3
2017-Oct-13 13:00N 51°17' E 004°20'3 6.4
2017-Oct-13 12:31N 51°20' E 004°18'1 1.7
2017-Oct-13 12:00N 51°21' E 004°17'0 0.0
2017-Oct-13 11:30N 51°21' E 004°17'0 0.0
2017-Oct-13 11:00N 51°21' E 004°17'3 5.4
2017-Oct-13 10:30N 51°22' E 004°13'3 6.5
2017-Oct-13 10:00N 51°22' E 004°08'4 8.4
2017-Oct-13 09:30N 51°24' E 004°02'3 5.4
2017-Oct-13 09:00N 51°24' E 003°58'510.4
2017-Oct-13 08:30N 51°21' E 003°51'510.9
2017-Oct-13 08:00N 51°23' E 003°43'510.5
2017-Oct-13 07:30N 51°25' E 003°36'510.0
2017-Oct-13 07:00N 51°29' E 003°30'5 9.8
2017-Oct-13 06:30N 51°33' E 003°25'611.3
2017-Oct-13 06:00N 51°38' E 003°21'611.0
2017-Oct-13 05:29N 51°43' E 003°17'3 5.3
2017-Oct-13 04:58N 51°45' E 003°15'4 7.0
2017-Oct-13 04:26N 51°49' E 003°18'3 5.7
2017-Oct-13 03:58N 51°50' E 003°22'0 0.1
2017-Oct-13 03:30N 51°50' E 003°22'0 0.0
2017-Oct-13 03:00N 51°50' E 003°22'0 0.0
2017-Oct-13 02:30N 51°50' E 003°22'0 0.0
2017-Oct-13 01:58N 51°50' E 003°22'0 0.0
2017-Oct-13 01:30N 51°50' E 003°22'0 0.0
2017-Oct-13 01:00N 51°50' E 003°22'0 0.3
2017-Oct-13 00:28N 51°50' E 003°21'2 3.4
2017-Oct-12 23:57N 51°51' E 003°19'10 8.1
2017-Oct-12 22:43N 52°01' E 003°20'210.1
2017-Oct-12 22:30N 52°03' E 003°21'5 9.9
2017-Oct-12 21:59N 52°04' E 003°29'511.0
2017-Oct-12 21:30N 52°03' E 003°38'510.9
2017-Oct-12 21:00N 52°03' E 003°47'510.2
2017-Oct-12 20:30N 52°03' E 003°55'3 6.8
2017-Oct-12 20:00N 52°01' E 003°60'510.6
2017-Oct-12 19:30N 51°59' E 004°07'5 9.6
2017-Oct-12 19:00N 51°56' E 004°14'3 5.7
2017-Oct-12 18:28N 51°54' E 004°17'0 0.0
2017-Oct-12 17:58N 51°54' E 004°17'0 0.0
2017-Oct-12 17:25N 51°54' E 004°17'0 0.0
2017-Oct-12 16:58N 51°54' E 004°17'0 0.0
2017-Oct-12 16:28N 51°54' E 004°17'0 0.0
2017-Oct-12 15:58N 51°54' E 004°17'0 0.0
2017-Oct-12 15:28N 51°54' E 004°17'0 0.0
2017-Oct-12 14:58N 51°54' E 004°17'0 0.0
2017-Oct-12 14:28N 51°54' E 004°17'0 0.0
2017-Oct-12 13:58N 51°54' E 004°17'0 0.0
2017-Oct-12 13:28N 51°54' E 004°17'0 0.0
2017-Oct-12 12:58N 51°54' E 004°17'0 0.0
2017-Oct-12 12:28N 51°54' E 004°17'0 0.0
2017-Oct-12 11:58N 51°54' E 004°17'0 0.0
2017-Oct-12 11:28N 51°54' E 004°17'0 0.0
2017-Oct-12 10:58N 51°54' E 004°17'0 0.0
2017-Oct-12 10:28N 51°54' E 004°17'0 0.0
2017-Oct-12 09:58N 51°54' E 004°17'0 0.0
2017-Oct-12 09:28N 51°54' E 004°17'0 0.0
2017-Oct-12 08:58N 51°54' E 004°17'0 0.0
2017-Oct-12 08:28N 51°54' E 004°17'0 0.0
2017-Oct-12 07:58N 51°54' E 004°17'0 0.0
2017-Oct-12 07:28N 51°54' E 004°17'0 0.0
2017-Oct-12 06:58N 51°54' E 004°17'0 0.0
2017-Oct-12 06:28N 51°54' E 004°17'0 0.0
2017-Oct-12 05:58N 51°54' E 004°17'0 0.0
2017-Oct-12 05:28N 51°54' E 004°17'0 0.0
2017-Oct-12 04:58N 51°54' E 004°17'0 0.0
2017-Oct-12 04:28N 51°54' E 004°17'0 0.0
2017-Oct-12 03:58N 51°54' E 004°17'0 0.0
2017-Oct-12 03:28N 51°54' E 004°17'0 0.0
2017-Oct-12 02:58N 51°54' E 004°17'0 0.0
2017-Oct-12 02:28N 51°54' E 004°17'0 0.0
2017-Oct-12 01:58N 51°54' E 004°17'0 0.0
2017-Oct-12 01:28N 51°54' E 004°17'0 0.0
2017-Oct-12 00:58N 51°54' E 004°17'0 0.0
2017-Oct-12 00:28N 51°54' E 004°17'0 0.0
2017-Oct-11 23:58N 51°54' E 004°17'0 0.0
2017-Oct-11 23:28N 51°54' E 004°17'0 0.0
2017-Oct-11 22:58N 51°54' E 004°17'0 0.0
2017-Oct-11 22:28N 51°54' E 004°17'0 0.0
2017-Oct-11 21:58N 51°54' E 004°17'0 0.0
2017-Oct-11 21:28N 51°54' E 004°17'0 0.0
2017-Oct-11 20:58N 51°54' E 004°17'0 0.0
2017-Oct-11 20:28N 51°54' E 004°17'0 0.0
2017-Oct-11 19:58N 51°54' E 004°17'0 0.0
2017-Oct-11 19:28N 51°54' E 004°17'0 0.0
2017-Oct-11 18:58N 51°54' E 004°17'0 0.0
2017-Oct-11 18:28N 51°54' E 004°17'0 0.0
2017-Oct-11 17:58N 51°54' E 004°17'0 0.0
2017-Oct-11 17:28N 51°54' E 004°17'0 0.0
2017-Oct-11 16:58N 51°54' E 004°17'0 0.0
2017-Oct-10 23:58N 51°54' E 004°17'0 0.0
2017-Oct-10 23:28N 51°54' E 004°17'0 0.0
2017-Oct-10 22:58N 51°54' E 004°17'0 0.0
2017-Oct-10 22:28N 51°54' E 004°17'0 0.0
2017-Oct-10 21:58N 51°54' E 004°17'0 0.0
2017-Oct-10 21:28N 51°54' E 004°17'0 0.0
2017-Oct-10 20:58N 51°54' E 004°17'0 0.0
2017-Oct-10 20:28N 51°54' E 004°17'0 0.0
2017-Oct-10 19:58N 51°54' E 004°17'0 0.0
2017-Oct-10 19:28N 51°54' E 004°17'0 0.0
2017-Oct-10 18:58N 51°54' E 004°17'0 0.0
2017-Oct-10 18:28N 51°54' E 004°17'0 0.0
2017-Oct-10 17:58N 51°54' E 004°17'0 0.0
2017-Oct-10 17:28N 51°54' E 004°17'0 0.0
2017-Oct-10 16:58N 51°54' E 004°17'0 0.0
2017-Oct-10 16:28N 51°54' E 004°17'0 0.0
2017-Oct-10 15:58N 51°54' E 004°17'0 0.0
2017-Oct-10 15:28N 51°54' E 004°17'0 0.0
2017-Oct-10 14:58N 51°54' E 004°17'0 0.0
2017-Oct-10 13:58N 51°54' E 004°17'0 0.0
2017-Oct-10 13:28N 51°54' E 004°17'0 0.0
2017-Oct-10 12:58N 51°54' E 004°17'0 0.0
2017-Oct-10 12:28N 51°54' E 004°17'0 0.0
2017-Oct-10 11:58N 51°54' E 004°17'0 0.0
2017-Oct-10 11:28N 51°54' E 004°17'0 0.0
2017-Oct-10 10:58N 51°54' E 004°17'0 0.0
2017-Oct-10 10:25N 51°54' E 004°17'0 0.0
2017-Oct-10 09:58N 51°54' E 004°17'0 0.0
2017-Oct-10 09:28N 51°54' E 004°17'0 0.0
2017-Oct-10 08:58N 51°54' E 004°17'0 0.0
2017-Oct-10 08:28N 51°54' E 004°17'0 0.0
2017-Oct-10 07:58N 51°54' E 004°17'0 0.0
2017-Oct-10 07:28N 51°54' E 004°17'0 0.0
2017-Oct-10 06:58N 51°54' E 004°17'0 0.0
2017-Oct-10 06:28N 51°54' E 004°17'0 0.0
2017-Oct-10 05:58N 51°54' E 004°17'0 0.0
2017-Oct-10 05:28N 51°54' E 004°17'0 0.0
2017-Oct-10 04:58N 51°54' E 004°17'0 0.0
2017-Oct-10 04:28N 51°54' E 004°17'0 0.0
2017-Oct-10 03:58N 51°54' E 004°17'0 0.0
2017-Oct-10 03:28N 51°54' E 004°17'0 0.0
2017-Oct-10 02:58N 51°54' E 004°17'0 0.0
2017-Oct-10 02:28N 51°54' E 004°17'0 0.0
2017-Oct-10 01:58N 51°54' E 004°17'0 0.0
2017-Oct-10 01:28N 51°54' E 004°17'0 0.0
2017-Oct-10 00:58N 51°54' E 004°17'0 0.0
2017-Oct-10 00:28N 51°54' E 004°17'0 0.0
2017-Oct-09 23:58N 51°54' E 004°17'0 0.0
2017-Oct-09 23:28N 51°54' E 004°17'0 0.0
2017-Oct-09 22:55N 51°54' E 004°17'0 0.0
2017-Oct-09 22:28N 51°54' E 004°17'0 0.0
2017-Oct-09 21:58N 51°54' E 004°17'0 0.0
2017-Oct-09 21:28N 51°54' E 004°17'0 0.0
2017-Oct-09 20:58N 51°54' E 004°17'0 0.0
2017-Oct-09 20:28N 51°54' E 004°17'0 0.0
2017-Oct-09 19:58N 51°54' E 004°17'0 0.0
2017-Oct-09 19:28N 51°54' E 004°17'0 0.0
2017-Oct-09 18:58N 51°54' E 004°17'0 0.0
2017-Oct-09 18:28N 51°54' E 004°17'0 0.0
2017-Oct-09 17:58N 51°54' E 004°17'0 0.0
2017-Oct-09 17:28N 51°54' E 004°17'0 0.0
2017-Oct-09 16:58N 51°54' E 004°17'0 0.0
2017-Oct-09 16:28N 51°54' E 004°17'0 0.0
2017-Oct-09 15:58N 51°54' E 004°17'0 0.0
2017-Oct-09 15:28N 51°54' E 004°17'0 0.0
2017-Oct-09 14:58N 51°54' E 004°17'0 0.0
2017-Oct-09 14:28N 51°54' E 004°17'0 0.0
2017-Oct-09 13:58N 51°54' E 004°17'0 0.0
2017-Oct-09 13:28N 51°54' E 004°17'0 0.0
2017-Oct-09 12:58N 51°54' E 004°17'0 0.0
2017-Oct-09 12:28N 51°54' E 004°17'0 0.0
2017-Oct-09 11:58N 51°54' E 004°17'0 0.0
2017-Oct-09 11:28N 51°54' E 004°17'0 0.0
2017-Oct-09 10:58N 51°54' E 004°17'0 0.0
2017-Oct-09 10:28N 51°54' E 004°17'0 0.0
2017-Oct-09 09:58N 51°54' E 004°17'0 0.0
2017-Oct-09 09:28N 51°54' E 004°17'0 0.0
2017-Oct-09 08:58N 51°54' E 004°17'0 0.0
2017-Oct-09 08:28N 51°54' E 004°17'0 0.0
2017-Oct-09 07:58N 51°54' E 004°17'0 0.0
2017-Oct-09 07:28N 51°54' E 004°17'0 0.0
2017-Oct-09 06:58N 51°54' E 004°17'0 0.0
2017-Oct-09 06:28N 51°54' E 004°17'0 0.0
2017-Oct-09 05:58N 51°54' E 004°17'0 0.0
2017-Oct-09 05:28N 51°54' E 004°17'0 0.0
2017-Oct-09 04:58N 51°54' E 004°17'  

Dump ship's entire track history